หน้าหลัก
METAR-TAF:

METAR-TAF

ท่าอากาศยาน :

เอร์โมซีโย, เม็กซิโก

ละติจูด: 29-04N, ลองจิจูด: 110-57W, ความสูง: 211 ม.

การสังเกตสภาพอากาศปัจจุบัน

รายงานได้ทำขึ้นเมื่อ 53 นาทีที่แล้ว ณ เวลา 15:43 UTC
ลม 5 นอตจากใต้/ตะวันออกเฉียงใต้
อุณหภูมิ 31°C
ความชื้น 49%
ความกดอากาศ 1007 hPa
ทัศนวิสัย: 16.1 กม.
ท้องฟ้าแจ่มใส

METAR: MMHO 181543Z 15005KT 10SM SKC 31/19 A2974 RMK HZY

เวลา: 09:36 (16:36 UTC)

การพยากรณ์

รายงานได้ทำขึ้นเมื่อ 11 ชั่วโมงและ 35 นาทีที่แล้ว ณ เวลา 05:01 UTC
การพยากรณ์มีผลตั้งแต่วันที่ 18 ณ เวลา 06 UTC จนถึงวันที่ 19 ณ เวลา 06 UTC
ลม 5 นอตจากตะวันออก/ตะวันออกเฉียงใต้
ทัศนวิสัย: 10 กม.
ท้องฟ้าแจ่มใส
จาก 18 ณ เวลา 1800 UTC
ลม 15 นอตจากใต้/ตะวันตกเฉียงใต้
ทัศนวิสัย: 10 กม.
ท้องฟ้าแจ่มใส
กำลังกลายเป็น
ตั้งแต่วันที่ 19 ณ เวลา 02 UTC จนถึงวันที่ 19 ณ เวลา 04 UTC
ลม 5 นอตจากตะวันตก/ตะวันตกเฉียงใต้

TAF: MMHO 180501Z 1806/1906 12005KT P6SM SKC FM181800 20015KT P6SM SKC BECMG 1902/1904 24005KT

สังเกตการณ์สภาพอากาศและพยากรณ์อากาศของสนามบินมากกว่า 4000 แห่ง (รายงาน METAR และ TAF).

สถานีที่ดูได้จะแสดงไว้ด้วยจุดสีเหลืองและสีแดงบนแผนที่.

เลื่อนเมาส์ไปเหนือจุดเพื่อดูชื่อสถานี.

แล้วคลิกเพื่อดูสังเกตการณ์และการพยากรณ์สภาพอากาศ.

ในการเปลี่ยนแผนที่: คลิกที่ปุ่มสีเขียวที่มีกากบาทสีดำเพื่อซูมเข้า; ที่ปุ่มสีเขียวที่มีขีดเพื่อซูมออก; หรือที่ลูกศรสีเขียวเพื่อไปยังแผนที่ที่อยู่ติดกัน.


METAR-TAF: